createdAt,value
2022-08-17T00:03:35.606Z,5.2
2022-08-17T00:09:27.530Z,5.6
2022-08-17T00:15:20.107Z,5.2
2022-08-17T00:21:26.690Z,5.3
2022-08-17T00:28:17.960Z,5.5
2022-08-17T00:34:13.810Z,5.6
2022-08-17T00:40:05.523Z,5.4
2022-08-17T00:45:56.072Z,5.2
2022-08-17T00:51:48.306Z,5.2
2022-08-17T00:57:38.509Z,5.3
2022-08-17T01:03:31.273Z,5.1
2022-08-17T01:09:22.463Z,5.3
2022-08-17T01:15:12.128Z,5.2
2022-08-17T01:21:01.985Z,5.3
2022-08-17T01:26:52.212Z,5.2
2022-08-17T01:32:42.609Z,5.1
2022-08-17T01:38:33.552Z,5.2
2022-08-17T01:44:23.715Z,5.5
2022-08-17T01:50:12.804Z,5.2
2022-08-17T01:56:02.693Z,5.1
2022-08-17T02:01:54.151Z,5.3
2022-08-17T02:08:36.947Z,5.3
2022-08-17T02:14:26.439Z,5.5
2022-08-17T02:20:44.642Z,5.2
2022-08-17T02:26:35.145Z,5.5
2022-08-17T02:32:33.834Z,5.7
2022-08-17T02:38:22.222Z,5.4
2022-08-17T02:44:12.181Z,5.4
2022-08-17T02:50:02.651Z,5.2
2022-08-17T02:56:00.232Z,5.6
2022-08-17T03:01:51.023Z,5
2022-08-17T03:07:39.853Z,5.5
2022-08-17T03:13:30.988Z,5.4
2022-08-17T03:19:21.692Z,5.5
2022-08-17T03:25:24.223Z,5.3
2022-08-17T03:31:16.186Z,5.7
2022-08-17T03:37:06.510Z,5.8
2022-08-17T03:42:57.799Z,5.5
2022-08-17T03:48:52.246Z,5.6
2022-08-17T03:54:45.195Z,5.1
2022-08-17T04:00:43.361Z,5.1
2022-08-17T04:06:36.038Z,5
2022-08-17T04:12:29.168Z,5.4
2022-08-17T04:18:21.627Z,5
2022-08-17T04:24:13.167Z,5.4
2022-08-17T04:30:04.485Z,5.1
2022-08-17T04:35:57.637Z,5
2022-08-17T04:41:50.303Z,5.4
2022-08-17T04:47:41.845Z,5.2
2022-08-17T04:53:32.905Z,4.9
2022-08-17T04:59:24.757Z,5.3
2022-08-17T05:05:18.137Z,5.4
2022-08-17T05:11:10.002Z,5.3
2022-08-17T05:17:10.987Z,5.8
2022-08-17T05:23:07.078Z,5.5
2022-08-17T05:29:04.355Z,6.2
2022-08-17T05:34:57.846Z,5.8
2022-08-17T05:40:51.089Z,5.8
2022-08-17T05:46:42.960Z,5.8
2022-08-17T05:52:36.244Z,6.2
2022-08-17T05:58:27.738Z,6
2022-08-17T06:04:18.682Z,6
2022-08-17T06:10:11.997Z,5.7
2022-08-17T06:16:03.261Z,6.5
2022-08-17T06:21:54.474Z,5.8
2022-08-17T06:27:46.351Z,5.1
2022-08-17T06:33:40.597Z,5.2
2022-08-17T06:39:33.404Z,5.8
2022-08-17T06:45:25.801Z,5.6
2022-08-17T06:51:17.060Z,5.8
2022-08-17T06:57:09.690Z,5.4
2022-08-17T07:03:00.727Z,5.5
2022-08-17T07:08:53.021Z,5.6
2022-08-17T07:14:43.679Z,5.1
2022-08-17T07:20:35.486Z,6
2022-08-17T07:26:26.958Z,6.5
2022-08-17T07:32:20.278Z,6.2
2022-08-17T07:38:32.227Z,5.9
2022-08-17T07:44:21.980Z,5.9
2022-08-17T07:50:15.952Z,6
2022-08-17T07:56:07.362Z,6
2022-08-17T08:02:07.344Z,6
2022-08-17T08:08:01.846Z,6
2022-08-17T08:13:53.922Z,5.4
2022-08-17T08:19:54.371Z,5.6
2022-08-17T08:25:57.223Z,5.9
2022-08-17T08:31:48.850Z,6.3
2022-08-17T08:37:52.099Z,7.1
2022-08-17T08:43:43.165Z,7.4
2022-08-17T08:50:39.100Z,7.7
2022-08-17T08:56:27.336Z,8
2022-08-17T09:02:19.445Z,7.9
2022-08-17T09:08:13.210Z,8.4
2022-08-17T09:14:28.180Z,8.4
2022-08-17T09:20:33.775Z,9.1
2022-08-17T09:26:26.098Z,9.5
2022-08-17T09:32:18.827Z,9.3
2022-08-17T09:38:10.290Z,10.3
2022-08-17T09:44:01.033Z,11.3
2022-08-17T09:49:53.891Z,11.9
2022-08-17T09:55:45.715Z,12
2022-08-17T10:01:37.545Z,11.6
2022-08-17T10:07:28.296Z,12.3
2022-08-17T10:13:27.516Z,12.5
2022-08-17T10:19:18.137Z,12.1
2022-08-17T10:25:57.782Z,12.8
2022-08-17T10:31:47.026Z,13.5
2022-08-17T10:37:37.944Z,14.1
2022-08-17T10:43:32.357Z,12.8
2022-08-17T10:49:21.764Z,13
2022-08-17T10:55:13.335Z,12.4
2022-08-17T11:01:06.405Z,13.8
2022-08-17T11:06:57.856Z,13.4
2022-08-17T11:12:50.223Z,12.8
2022-08-17T11:18:41.405Z,13.7
2022-08-17T11:24:33.269Z,12.2
2022-08-17T11:30:31.734Z,12.7
2022-08-17T11:36:21.897Z,12.7
2022-08-17T11:42:13.738Z,12.9
2022-08-17T11:48:35.976Z,14.3
2022-08-17T11:54:45.318Z,14.3
2022-08-17T12:00:51.303Z,16.2
2022-08-17T12:06:49.250Z,14.6
2022-08-17T12:12:55.315Z,13.9
2022-08-17T12:18:56.637Z,15.7
2022-08-17T12:25:06.371Z,15.8
2022-08-17T12:31:28.386Z,16.6
2022-08-17T12:37:29.822Z,15.4
2022-08-17T12:43:21.200Z,15.8
2022-08-17T12:49:12.785Z,15.8
2022-08-17T12:55:04.099Z,13.9
2022-08-17T13:00:54.859Z,13.1
2022-08-17T13:06:46.100Z,15
2022-08-17T13:12:37.624Z,13.3
2022-08-17T13:18:31.766Z,14.3
2022-08-17T13:24:23.380Z,14.8
2022-08-17T13:30:14.172Z,13.2
2022-08-17T13:36:04.831Z,14.2
2022-08-17T13:41:57.417Z,14.6
2022-08-17T13:47:47.825Z,14.7
2022-08-17T13:53:42.060Z,13.9
2022-08-17T14:00:00.883Z,14.3
2022-08-17T14:05:49.571Z,13.8
2022-08-17T14:11:40.245Z,13.6
2022-08-17T14:17:33.687Z,13.6
2022-08-17T14:23:26.310Z,14.4
2022-08-17T14:29:22.076Z,14.2
2022-08-17T14:35:12.634Z,13.9
2022-08-17T14:41:04.446Z,13.2
2022-08-17T14:46:57.043Z,13.6
2022-08-17T14:52:47.806Z,13.3
2022-08-17T14:58:41.712Z,13.9
2022-08-17T15:04:32.818Z,13.4
2022-08-17T15:10:26.234Z,14.5
2022-08-17T15:16:17.438Z,14.1
2022-08-17T15:22:09.041Z,13.5
2022-08-17T15:28:00.974Z,14.1
2022-08-17T15:33:51.714Z,13.5
2022-08-17T15:39:44.086Z,12.7
2022-08-17T15:45:34.885Z,12.9
2022-08-17T15:51:25.874Z,12.3
2022-08-17T15:57:17.117Z,12.3
2022-08-17T16:04:33.749Z,11.2
2022-08-17T16:10:38.663Z,10.5
2022-08-17T16:16:28.097Z,10
2022-08-17T16:22:18.980Z,8.4
2022-08-17T16:28:11.137Z,8.7
2022-08-17T16:34:23.796Z,7.1
2022-08-17T16:40:14.038Z,7.9
2022-08-17T16:46:04.626Z,7.5
2022-08-17T16:51:54.801Z,7.6
2022-08-17T16:57:55.818Z,7.6
2022-08-17T17:03:45.597Z,7.6
2022-08-17T17:09:37.161Z,7.1
2022-08-17T17:15:28.679Z,6.8
2022-08-17T17:21:20.036Z,7.2
2022-08-17T17:27:13.998Z,7.6
2022-08-17T17:33:03.799Z,8.1
2022-08-17T17:38:53.974Z,7.6
2022-08-17T17:44:45.883Z,8.5
2022-08-17T17:50:40.112Z,32.2
2022-08-17T17:56:50.545Z,9.5
2022-08-17T18:02:39.320Z,11.2
2022-08-17T18:08:39.537Z,9.6
2022-08-17T18:14:30.045Z,12.4
2022-08-17T18:20:20.272Z,9.4
2022-08-17T18:26:25.928Z,9
2022-08-17T18:32:23.434Z,9.5
2022-08-17T18:38:20.010Z,9.2
2022-08-17T18:44:12.949Z,9.7
2022-08-17T18:50:02.829Z,9.6
2022-08-17T18:55:56.028Z,10.6
2022-08-17T19:02:22.364Z,10.2
2022-08-17T19:08:17.530Z,10.9
2022-08-17T19:14:07.541Z,11
2022-08-17T19:19:59.847Z,11.1
2022-08-17T19:25:54.014Z,11.3
2022-08-17T19:31:44.320Z,11.5
2022-08-17T19:37:35.010Z,11.8
2022-08-17T19:43:25.385Z,12.2
2022-08-17T19:49:15.645Z,12.5
2022-08-17T19:55:06.773Z,12.2
2022-08-17T20:00:57.365Z,12.9
2022-08-17T20:06:47.893Z,11.2
2022-08-17T20:12:39.396Z,13
2022-08-17T20:18:30.191Z,12.3
2022-08-17T20:24:20.954Z,12.4
2022-08-17T20:30:11.857Z,12.4
2022-08-17T20:36:04.414Z,13.5
2022-08-17T20:41:55.233Z,12.7
2022-08-17T20:48:42.991Z,13.3
2022-08-17T20:54:32.397Z,13.3
2022-08-17T21:00:22.302Z,13.2
2022-08-17T21:12:15.943Z,14.2
2022-08-17T21:18:06.578Z,14
2022-08-17T21:23:59.144Z,16.6
2022-08-17T21:29:57.935Z,13.8
2022-08-17T21:35:49.050Z,14.1
2022-08-17T21:41:39.776Z,14.1
2022-08-17T21:47:30.187Z,14.8
2022-08-17T21:53:19.911Z,14.5
2022-08-17T21:59:11.506Z,14.4
2022-08-17T22:05:02.196Z,14.4
2022-08-17T22:10:52.962Z,16.3
2022-08-17T22:16:47.454Z,14.5
2022-08-17T22:22:38.653Z,14.7
2022-08-17T22:28:31.670Z,14.2
2022-08-17T22:34:24.311Z,13.6
2022-08-17T22:40:17.448Z,14.1
2022-08-17T22:46:08.635Z,13.9
2022-08-17T22:51:59.536Z,14
2022-08-17T22:57:51.558Z,14.2
2022-08-17T23:03:43.015Z,13.6
2022-08-17T23:09:34.457Z,14.1
2022-08-17T23:15:25.983Z,14.2
2022-08-17T23:21:32.159Z,13.9
2022-08-17T23:27:26.222Z,14.6
2022-08-17T23:33:17.351Z,15
2022-08-17T23:39:07.928Z,14.4
2022-08-17T23:44:59.121Z,14.8
2022-08-17T23:50:49.665Z,14.4
2022-08-17T23:56:40.884Z,13.5
